Glendora, CA (91741)

2:18 AM PST on January 29, 2015 (GMT -0800)
Myrtle Ave | Change Station
CLOSE
Current Station
Personal Weather Station
Location: Glendora, CA
Elevation: 833 ft
Nearby Weather Stations

Elev 833 ft 34.13 °N, 117.85 °W | Updated 3 minutes ago

Overcast
Overcast
57.1 °F
Feels Like 57.1 °F
N
1.0
Wind Variable Wind from East
Gusts 3.0 mph

Today
High -- | Low -- °F
--% Chance of Precip.
Yesterday
High -- | Low -- °F
Precip. -- in
6:50 AM 5:18 PM
Waxing Gibbous, 73% visible
Pressure 30.04 in
Visibility 10.0 miles
Clouds Mostly Cloudy 16000 ft
Mostly Cloudy 25000 ft
Dew Point 45 °F
Humidity 64%
Rainfall 0.00 in
Snow Depth Not available.
UV 0 out of 12
Pollen 7.20 out of 12
Air Quality Not available.
Flu Activity Not available.
METAR KONT 290953Z 00000KT 10SM BKN160 BKN250 14/08 A3006 RMK AO2 SLP171 T01390078

More Conditions Fewer Conditions

Pressure 30.04 in
Visibility 10.0 miles
Clouds Mostly Cloudy 16000 ft
Mostly Cloudy 25000 ft
Dew Point 45 °F
Humidity 64%
Rainfall 0.00 in
Snow Depth Not available.
UV 0 out of 12
Pollen 7.20 out of 12
Air Quality Not available.
Flu Activity Not available.
METAR KONT 290953Z 00000KT 10SM BKN160 BKN250 14/08 A3006 RMK AO2 SLP171 T01390078

More Conditions Fewer Conditions

10-Day Weather Forecast

Almanac

Astronomy

Jan. 29, 2015 Rise Set
Actual Time
Civil Twilight
Nautical Twilight
Astronomical Twilight
Moon
Length of Visible Light
Length of Day
Tomorrow will be .
, % of the Moon is Illuminated

Today's Extremes

State Highs State Lows

Community

WunderPhotos

Upload Photos

1,791,389 photos uploaded!

WunderBlogs® & News

Nearby

Air Quality

  Air Quality AQ Index Pollutant
Not available.

Snow Depth

Station Depth Elevation

Earthquake Activity

City Distance Mag. Time & Date
Minimum magnitude displayed is 2.5.

Coastal Water Temperatures

Place Temperature

Nearby Weather Stations